Terminal Aerodrome Forecast
Issued by NWS Quad Cities IA IL

Home | Current Version | Previous Version | Text Only | Print | Product List | Glossary On
Versions: 1 2 3 4 5 6 7 8 9 10 11 12 13 14 15 16 17 18
047
FTUS43 KDVN 211740
TAFDBQ
TAF
KDBQ 211740Z 2118/2218 20020G30KT P6SM SKC
     FM220300 17015G23KT P6SM VCSH OVC040
      TEMPO 2203/2207 3SM TSRA OVC015CB
     FM220700 28010KT 4SM -SHRA OVC015
     FM221700 33013KT P6SM OVC035=

USA.gov is the U.S. government's official web portal to all federal, state and local government web resources and services.